Saturday, July 26, 2014
03:12 UTC
  |  Log In   |  Register Free
Airport Search:

Chanute Martin Johnson Airport
(KCNU)

Chanute Martin Johnson Airport Diagram
No Airport Diagram Available

FAA data valid effective July 24, 2014 until September 18, 2014 (unless otherwise noted).

 
 
 
 
 
 
 
 
 
 
 
 
 
 

Current Aviation Weather for Chanute Martin Johnson Airport (KCNU)

The most recent METAR observation for KCNU was updated at: 0152 UTC
METAR Summary (Translated METAR)
KCNU
260152Z AUTO 17011KT 10SM CLR 29/23 A2985 RMK AO2 SLP093 T02890233
KPPF
(20.3 nm SW from KCNU)
260252Z AUTO 18010G17KT 10SM CLR 28/23 A2988 RMK AO2 SLP106 T02830228 53004
TAF Summary (Translated TAF)
KCNU
251734Z 2518/2618 20018G26KT P6SM SCT250 FM260100 18013KT P6SM SCT250 FM261600 20016G22KT P6SM SCT250
  Airport Weather Conditions for KCNU

 Current Weather at CNU
84° F
Fair
South winds at 12.7 mph
CNU NOAA Radar

Pressure: 29.85 in
Humidity: 72%
Wind: South at 12.7 MPH (11 KT)
Dew Point: 73.9°F
Visibility: 10.00 mi


Airport Weather Forecast for KCNU

Translated METAR and TAF for KCNU
Translated METAR for KCNU (0306 UTC 26 July 2014)
found at http://aviationweather.gov/adds/metars/
 
METAR text: KCNU 260252Z AUTO 17013G21KT 10SM CLR 28/23 A2986 RMK AO2 SLP098 T02830228 53004
Conditions at: KCNU (CHANUTE , KS, US) observed 0252 UTC 26 July 2014
Temperature: 28.3°C (83°F)
Dewpoint: 22.8°C (73°F) [RH = 72%]
Pressure (altimeter): 29.86 inches Hg (1011.3 mb)
[Sea-level pressure: 1009.8 mb]
Winds: from the S (170 degrees) at 15 MPH (13 knots; 6.8 m/s)
gusting to 24 MPH (21 knots; 10.9 m/s)
Visibility: 10 or more miles (16+ km)
Ceiling: at least 12,000 feet AGL
Clouds: sky clear below 12,000 feet AGL
Weather: automated observation with no human augmentation;
there may or may not be significant weather present at this time
Translated TAF for KCNU
Forecast for: KCNU (CHANUTE , KS, US)
TAF Text: KCNU 252320Z 2600/2624 19016G22KT P6SM SCT150
Forecast period: 0000 to 0100 UTC 26 July 2014
Forecast type: FROM: standard forecast or significant change
Winds: from the S (190 degrees) at 18 MPH (16 knots; 8.3 m/s)
gusting to 25 MPH (22 knots; 11.4 m/s)
Visibility: 6 or more miles (10+ km)
Clouds: scattered clouds at 15000 feet AGL
Weather: no significant weather forecast for this period
TAF Text: FM260100 18011KT P6SM SCT150
Forecast period: 0100 to 1500 UTC 26 July 2014
Forecast type: FROM: standard forecast or significant change
Winds: from the S (180 degrees) at 13 MPH (11 knots; 5.7 m/s)
Visibility: 6 or more miles (10+ km)
Clouds: scattered clouds at 15000 feet AGL
Weather: no significant weather forecast for this period
TAF Text: FM261500 21016G24KT P6SM SCT150
Forecast period: 1500 UTC 26 July 2014 to 0000 UTC 27 July 2014
Forecast type: FROM: standard forecast or significant change
Winds: from the SSW (210 degrees) at 18 MPH (16 knots; 8.3 m/s)
gusting to 28 MPH (24 knots; 12.5 m/s)
Visibility: 6 or more miles (10+ km)
Clouds: scattered clouds at 15000 feet AGL
Weather: no significant weather forecast for this period

Find All Airport Services Find A Hotel Find A Rental Car Find A Golf Course Find A Restaurant $100 Hamburger



FBO's on the Field
FBO Company Facility Photos Services Transportation Aviation Fuel Prices: Prices include tax
Catering Weather Repair Courtesy Rental Type 100LL JetA JetA+ MOGAS 8087
 
City of Chanute

This FBO has not yet been rated
FS:Phillips66
Last Updated: Jul-16
Login to update fuel prices
SS:
Contact City of ChanuteMore FBO Information
 
Add another FBO Facility Photos Catering Weather Repair Courtesy Rental Type 100LL JetA JetA+ MOGAS 8087
Services Transportation Aviation Fuel Prices: Prices include tax


GlobalAir.com Airport Resource Center model-print
model-print
model-print
model-print